John F Kennedy International Airport
KJFK : now visible

Airfield :











YOU CAN JOIN US ON...

 
LOGIN :

Register | Disclaimer

   EN    FR    IT 

 









Legend :    VFR   Marginal VFR   IFR   Intensive IFR   Very Intensive IFR
Visi :
Ceiling :
>= 8 km
>= 3000ft
5 to 8 km
1000 to 3000 ft
1500m to 5 km
500 to 1000 ft
800 to 1500m
200 to 500 ft
< 800m
< 200 ft
Symbols :   Thunderstorms  Fog  Heavy snow  Heavy precipitations  Wind > 20 kt






- Airport Elevation : 13 ft
- IATA code : JFK


KJFK - John F Kennedy International

CURRENT METAR :
  • 260051Z 12004KT 10SM FEW004 FEW019 SCT250 13/13 A3019 RMK AO2 SLP224 T01330133

EXPIRED METARs :
  • 252351Z 13005KT 10SM FEW007 FEW019 FEW250 15/13 A3018 RMK AO2 SLP220 T01500133 10189 20150 56004
  • 252251Z 12006KT 10SM FEW019 FEW250 17/14 A3018 RMK AO2 SLP220 T01720144

TAF KJFK
Valid from the 26 at 00:00 until the 27 at 06:00 UTC


252341Z 2600/2706 16005KT P6SM SCT035
FM260200 12005KT P6SM SCT008
TEMPO 2602/2604 BKN008
FM260400 VRB03KT 5SM BR OVC008
FM260600 VRB02KT 2SM BR OVC005
TEMPO 2608/2612 1/2SM FG VV002
FM261400 15004KT P6SM OVC010
FM261700 17008KT P6SM SCT015
FM262000 14006KT P6SM SCT025
FM270300 16003KT 6SM BR OVC010
KZNY FIR / North America



MET'MAP, your aeronautical weather chart ! - Copyright ORBIFLY December 2007 - Disclaimer

ORBIFLY MET'MAP TEAM :

Programming & Development : Alexandra Zaïnal
Concept & original design : Baudouin d'Aumeries
Assistance for programming : Marc-Olivier Méhu
Technical & hardware support : Manuel Goepfert

Contact : metmap@orbifly.com




SOURCES & CREDITS :

   NOAA       Earth
Advisory